sensor_id;sensor_type;location;lat;lon;timestamp;pressure;altitude;pressure_sealevel;temperature;humidity
21706;BME280;11014;53.076;18.208;2022-12-18T00:01:35;102877.25;;;2.00;58.70
21706;BME280;11014;53.076;18.208;2022-12-18T00:04:05;102873.91;;;1.98;58.41
21706;BME280;11014;53.076;18.208;2022-12-18T00:06:35;102875.59;;;1.99;58.34
21706;BME280;11014;53.076;18.208;2022-12-18T00:09:29;102873.19;;;1.96;58.40
21706;BME280;11014;53.076;18.208;2022-12-18T00:12:07;102879.19;;;1.98;58.32
21706;BME280;11014;53.076;18.208;2022-12-18T00:14:44;102878.47;;;1.96;58.51
21706;BME280;11014;53.076;18.208;2022-12-18T00:17:13;102888.22;;;1.96;58.37
21706;BME280;11014;53.076;18.208;2022-12-18T00:19:41;102891.84;;;1.95;58.32
21706;BME280;11014;53.076;18.208;2022-12-18T00:22:10;102886.53;;;1.95;58.48
21706;BME280;11014;53.076;18.208;2022-12-18T00:24:39;102893.53;;;1.96;58.35
21706;BME280;11014;53.076;18.208;2022-12-18T00:27:08;102894.38;;;1.96;58.35
21706;BME280;11014;53.076;18.208;2022-12-18T00:29:37;102897.75;;;1.98;58.36
21706;BME280;11014;53.076;18.208;2022-12-18T00:32:08;102900.16;;;2.01;58.38
21706;BME280;11014;53.076;18.208;2022-12-18T00:34:39;102911.84;;;1.99;58.20
21706;BME280;11014;53.076;18.208;2022-12-18T00:37:09;102909.78;;;2.02;58.52
21706;BME280;11014;53.076;18.208;2022-12-18T00:39:43;102915.09;;;2.02;58.47
21706;BME280;11014;53.076;18.208;2022-12-18T00:42:13;102913.66;;;1.98;58.53
21706;BME280;11014;53.076;18.208;2022-12-18T00:45:00;102908.59;;;1.95;58.43
21706;BME280;11014;53.076;18.208;2022-12-18T00:47:29;102907.63;;;1.96;58.21
21706;BME280;11014;53.076;18.208;2022-12-18T00:49:57;102913.66;;;1.98;58.16
21706;BME280;11014;53.076;18.208;2022-12-18T00:52:26;102918.72;;;2.01;58.46
21706;BME280;11014;53.076;18.208;2022-12-18T00:54:54;102918.00;;;1.99;58.47
21706;BME280;11014;53.076;18.208;2022-12-18T00:57:23;102917.16;;;1.99;58.53
21706;BME280;11014;53.076;18.208;2022-12-18T00:59:55;102933.78;;;2.01;58.49
21706;BME280;11014;53.076;18.208;2022-12-18T01:02:23;102928.59;;;1.99;58.51
21706;BME280;11014;53.076;18.208;2022-12-18T01:04:52;102935.09;;;1.95;58.58
21706;BME280;11014;53.076;18.208;2022-12-18T01:07:21;102932.94;;;2.00;58.68
21706;BME280;11014;53.076;18.208;2022-12-18T01:09:49;102938.00;;;2.03;58.43
21706;BME280;11014;53.076;18.208;2022-12-18T01:12:20;102944.00;;;2.05;58.36
21706;BME280;11014;53.076;18.208;2022-12-18T01:14:50;102945.59;;;2.08;58.17
21706;BME280;11014;53.076;18.208;2022-12-18T01:17:21;102930.66;;;2.07;58.23
21706;BME280;11014;53.076;18.208;2022-12-18T01:19:50;102951.00;;;2.06;58.16
21706;BME280;11014;53.076;18.208;2022-12-18T01:22:22;102951.72;;;2.08;58.37
21706;BME280;11014;53.076;18.208;2022-12-18T01:24:50;102946.66;;;2.05;58.01
21706;BME280;11014;53.076;18.208;2022-12-18T01:27:19;102953.91;;;2.03;58.38
21706;BME280;11014;53.076;18.208;2022-12-18T01:29:47;102955.84;;;2.01;58.34
21706;BME280;11014;53.076;18.208;2022-12-18T01:32:20;102957.50;;;2.02;58.36
21706;BME280;11014;53.076;18.208;2022-12-18T01:34:50;102964.50;;;2.03;58.28
21706;BME280;11014;53.076;18.208;2022-12-18T01:37:19;102963.06;;;1.99;58.53
21706;BME280;11014;53.076;18.208;2022-12-18T01:39:49;102961.38;;;1.98;58.57
21706;BME280;11014;53.076;18.208;2022-12-18T01:42:21;102971.97;;;1.98;58.61
21706;BME280;11014;53.076;18.208;2022-12-18T01:49:59;102951.84;;;1.96;58.44
21706;BME280;11014;53.076;18.208;2022-12-18T01:52:31;102956.53;;;1.92;58.51
21706;BME280;11014;53.076;18.208;2022-12-18T01:55:03;102962.81;;;1.91;58.63
21706;BME280;11014;53.076;18.208;2022-12-18T01:57:33;102966.66;;;1.87;58.85
21706;BME280;11014;53.076;18.208;2022-12-18T02:00:15;102967.59;;;1.86;58.80
21706;BME280;11014;53.076;18.208;2022-12-18T02:02:46;102979.03;;;1.87;58.67
21706;BME280;11014;53.076;18.208;2022-12-18T02:05:44;102979.66;;;1.90;58.59
21706;BME280;11014;53.076;18.208;2022-12-18T02:08:26;102988.56;;;1.89;59.03
21706;BME280;11014;53.076;18.208;2022-12-18T02:11:34;102998.94;;;1.92;58.52
21706;BME280;11014;53.076;18.208;2022-12-18T02:14:37;102991.13;;;1.91;58.75
21706;BME280;11014;53.076;18.208;2022-12-18T02:17:07;102984.03;;;1.91;58.66
21706;BME280;11014;53.076;18.208;2022-12-18T02:20:02;102997.50;;;1.88;58.98
21706;BME280;11014;53.076;18.208;2022-12-18T02:22:54;102993.88;;;1.89;59.07
21706;BME280;11014;53.076;18.208;2022-12-18T02:28:36;102992.91;;;1.90;58.79
21706;BME280;11014;53.076;18.208;2022-12-18T02:31:13;103000.66;;;1.93;58.86
21706;BME280;11014;53.076;18.208;2022-12-18T02:33:44;103007.28;;;1.99;58.67
21706;BME280;11014;53.076;18.208;2022-12-18T02:36:16;103006.91;;;2.03;58.87
21706;BME280;11014;53.076;18.208;2022-12-18T02:38:46;103006.31;;;2.00;58.55
21706;BME280;11014;53.076;18.208;2022-12-18T02:41:17;103014.38;;;1.98;58.73
21706;BME280;11014;53.076;18.208;2022-12-18T02:43:47;103019.91;;;1.95;58.70
21706;BME280;11014;53.076;18.208;2022-12-18T02:46:35;103021.84;;;1.93;59.00
21706;BME280;11014;53.076;18.208;2022-12-18T02:51:53;103020.63;;;1.97;58.63
21706;BME280;11014;53.076;18.208;2022-12-18T02:57:13;103026.28;;;1.93;58.82
21706;BME280;11014;53.076;18.208;2022-12-18T02:59:58;103025.66;;;1.89;58.61
21706;BME280;11014;53.076;18.208;2022-12-18T03:02:36;103032.44;;;1.93;58.87
21706;BME280;11014;53.076;18.208;2022-12-18T03:05:14;103019.91;;;1.95;58.42
21706;BME280;11014;53.076;18.208;2022-12-18T03:08:14;103033.06;;;1.97;58.73
21706;BME280;11014;53.076;18.208;2022-12-18T03:10:51;103035.59;;;1.98;58.62
21706;BME280;11014;53.076;18.208;2022-12-18T03:13:28;103032.00;;;1.99;58.44
21706;BME280;11014;53.076;18.208;2022-12-18T03:16:02;103031.00;;;2.00;58.50
21706;BME280;11014;53.076;18.208;2022-12-18T03:18:37;103039.69;;;2.02;58.63
21706;BME280;11014;53.076;18.208;2022-12-18T03:21:09;103042.34;;;2.02;58.57
21706;BME280;11014;53.076;18.208;2022-12-18T03:23:43;103038.72;;;2.03;58.31
21706;BME280;11014;53.076;18.208;2022-12-18T03:26:17;103047.63;;;2.02;58.35
21706;BME280;11014;53.076;18.208;2022-12-18T03:28:59;103042.25;;;2.04;58.44
21706;BME280;11014;53.076;18.208;2022-12-18T03:31:33;103042.97;;;2.06;58.26
21706;BME280;11014;53.076;18.208;2022-12-18T03:34:09;103052.72;;;2.05;58.22
21706;BME280;11014;53.076;18.208;2022-12-18T03:36:44;103056.56;;;2.01;58.32
21706;BME280;11014;53.076;18.208;2022-12-18T03:39:14;103069.09;;;1.99;58.47
21706;BME280;11014;53.076;18.208;2022-12-18T03:41:57;103062.72;;;2.02;58.47
21706;BME280;11014;53.076;18.208;2022-12-18T03:45:13;103073.47;;;2.11;58.36
21706;BME280;11014;53.076;18.208;2022-12-18T03:50:49;103083.84;;;2.14;58.02
21706;BME280;11014;53.076;18.208;2022-12-18T03:56:03;103076.13;;;2.11;57.66
21706;BME280;11014;53.076;18.208;2022-12-18T03:58:38;103082.41;;;2.10;58.17
21706;BME280;11014;53.076;18.208;2022-12-18T04:01:27;103079.63;;;2.12;58.14
21706;BME280;11014;53.076;18.208;2022-12-18T04:04:00;103091.06;;;2.12;58.12
21706;BME280;11014;53.076;18.208;2022-12-18T04:06:35;103081.53;;;2.10;58.29
21706;BME280;11014;53.076;18.208;2022-12-18T04:09:05;103089.38;;;2.11;58.31
21706;BME280;11014;53.076;18.208;2022-12-18T04:11:40;103084.06;;;2.11;58.03
21706;BME280;11014;53.076;18.208;2022-12-18T04:14:14;103090.09;;;2.13;58.25
21706;BME280;11014;53.076;18.208;2022-12-18T04:16:49;103084.78;;;2.13;58.11
21706;BME280;11014;53.076;18.208;2022-12-18T04:19:21;103085.31;;;2.18;58.26
21706;BME280;11014;53.076;18.208;2022-12-18T04:21:52;103085.31;;;2.18;58.21
21706;BME280;11014;53.076;18.208;2022-12-18T04:24:21;103082.53;;;2.20;57.95
21706;BME280;11014;53.076;18.208;2022-12-18T04:27:02;103093.88;;;2.22;57.91
21706;BME280;11014;53.076;18.208;2022-12-18T04:29:34;103091.84;;;2.25;58.00
21706;BME280;11014;53.076;18.208;2022-12-18T04:32:03;103095.22;;;2.27;57.80
21706;BME280;11014;53.076;18.208;2022-12-18T04:34:33;103096.06;;;2.28;57.99
21706;BME280;11014;53.076;18.208;2022-12-18T04:37:01;103106.03;;;2.24;57.84
21706;BME280;11014;53.076;18.208;2022-12-18T04:39:31;103103.63;;;2.21;57.78
21706;BME280;11014;53.076;18.208;2022-12-18T04:42:05;103112.19;;;2.25;57.72
21706;BME280;11014;53.076;18.208;2022-12-18T04:44:34;103111.13;;;2.27;57.66
21706;BME280;11014;53.076;18.208;2022-12-18T04:47:04;103112.81;;;2.28;57.89
21706;BME280;11014;53.076;18.208;2022-12-18T04:49:32;103111.13;;;2.27;57.64
21706;BME280;11014;53.076;18.208;2022-12-18T04:52:01;103120.78;;;2.28;57.76
21706;BME280;11014;53.076;18.208;2022-12-18T04:54:29;103122.56;;;2.28;57.73
21706;BME280;11014;53.076;18.208;2022-12-18T04:56:58;103125.13;;;2.29;57.68
21706;BME280;11014;53.076;18.208;2022-12-18T04:59:27;103121.41;;;2.32;57.57
21706;BME280;11014;53.076;18.208;2022-12-18T05:01:55;103114.41;;;2.31;57.66
21706;BME280;11014;53.076;18.208;2022-12-18T05:04:24;103121.72;;;2.27;57.35
21706;BME280;11014;53.076;18.208;2022-12-18T05:06:52;103127.88;;;2.28;57.20
21706;BME280;11014;53.076;18.208;2022-12-18T05:09:22;103131.47;;;2.27;57.54
21706;BME280;11014;53.076;18.208;2022-12-18T05:11:51;103122.94;;;2.23;57.33
21706;BME280;11014;53.076;18.208;2022-12-18T05:14:19;103121.47;;;2.19;57.09
21706;BME280;11014;53.076;18.208;2022-12-18T05:16:48;103129.41;;;2.19;57.16
21706;BME280;11014;53.076;18.208;2022-12-18T05:19:17;103133.16;;;2.17;57.06
21706;BME280;11014;53.076;18.208;2022-12-18T05:21:46;103145.78;;;2.13;57.35
21706;BME280;11014;53.076;18.208;2022-12-18T05:24:22;103147.72;;;2.11;57.19
21706;BME280;11014;53.076;18.208;2022-12-18T05:26:50;103152.28;;;2.09;57.38
21706;BME280;11014;53.076;18.208;2022-12-18T05:29:19;103166.94;;;2.02;57.35
21706;BME280;11014;53.076;18.208;2022-12-18T05:31:48;103166.56;;;1.96;57.06
21706;BME280;11014;53.076;18.208;2022-12-18T05:34:16;103173.56;;;1.97;57.34
21706;BME280;11014;53.076;18.208;2022-12-18T05:36:45;103178.31;;;1.92;57.26
21706;BME280;11014;53.076;18.208;2022-12-18T05:39:13;103190.97;;;1.88;56.98
21706;BME280;11014;53.076;18.208;2022-12-18T05:41:42;103181.75;;;1.81;56.98
21706;BME280;11014;53.076;18.208;2022-12-18T05:44:11;103182.84;;;1.78;57.20
21706;BME280;11014;53.076;18.208;2022-12-18T05:46:39;103189.00;;;1.79;57.25
21706;BME280;11014;53.076;18.208;2022-12-18T05:49:09;103196.94;;;1.79;57.05
21706;BME280;11014;53.076;18.208;2022-12-18T05:51:38;103194.28;;;1.79;57.30
21706;BME280;11014;53.076;18.208;2022-12-18T05:54:08;103189.44;;;1.73;57.26
21706;BME280;11014;53.076;18.208;2022-12-18T05:56:37;103198.34;;;1.72;57.07
21706;BME280;11014;53.076;18.208;2022-12-18T05:59:07;103197.59;;;1.70;57.19
21706;BME280;11014;53.076;18.208;2022-12-18T06:01:36;103209.16;;;1.69;57.03
21706;BME280;11014;53.076;18.208;2022-12-18T06:04:07;103205.53;;;1.70;57.09
21706;BME280;11014;53.076;18.208;2022-12-18T06:06:35;103204.81;;;1.68;57.00
21706;BME280;11014;53.076;18.208;2022-12-18T06:09:05;103217.56;;;1.63;57.07
21706;BME280;11014;53.076;18.208;2022-12-18T06:11:38;103220.63;;;1.57;57.10
21706;BME280;11014;53.076;18.208;2022-12-18T06:14:07;103225.91;;;1.57;57.09
21706;BME280;11014;53.076;18.208;2022-12-18T06:16:35;103220.84;;;1.54;57.07
21706;BME280;11014;53.076;18.208;2022-12-18T06:19:05;103222.75;;;1.52;56.78
21706;BME280;11014;53.076;18.208;2022-12-18T06:21:34;103225.75;;;1.47;56.79
21706;BME280;11014;53.076;18.208;2022-12-18T06:24:03;103229.75;;;1.40;57.11
21706;BME280;11014;53.076;18.208;2022-12-18T06:26:32;103233.06;;;1.31;56.99
21706;BME280;11014;53.076;18.208;2022-12-18T06:29:00;103237.72;;;1.28;56.85
21706;BME280;11014;53.076;18.208;2022-12-18T06:31:29;103245.88;;;1.25;56.98
21706;BME280;11014;53.076;18.208;2022-12-18T06:33:57;103240.66;;;1.23;57.01
21706;BME280;11014;53.076;18.208;2022-12-18T06:36:26;103244.28;;;1.22;56.91
21706;BME280;11014;53.076;18.208;2022-12-18T06:38:58;103257.63;;;1.20;57.19
21706;BME280;11014;53.076;18.208;2022-12-18T06:41:27;103257.28;;;1.12;56.93
21706;BME280;11014;53.076;18.208;2022-12-18T06:43:57;103263.97;;;1.05;56.92
21706;BME280;11014;53.076;18.208;2022-12-18T06:46:27;103267.03;;;0.99;57.03
21706;BME280;11014;53.076;18.208;2022-12-18T06:48:55;103266.69;;;0.91;57.15
21706;BME280;11014;53.076;18.208;2022-12-18T06:51:25;103264.47;;;0.85;56.98
21706;BME280;11014;53.076;18.208;2022-12-18T06:53:54;103282.38;;;0.82;57.22
21706;BME280;11014;53.076;18.208;2022-12-18T06:56:23;103279.38;;;0.74;57.12
21706;BME280;11014;53.076;18.208;2022-12-18T06:58:51;103284.22;;;0.67;57.00
21706;BME280;11014;53.076;18.208;2022-12-18T07:01:20;103285.59;;;0.60;57.11
21706;BME280;11014;53.076;18.208;2022-12-18T07:03:54;103294.66;;;0.56;57.35
21706;BME280;11014;53.076;18.208;2022-12-18T07:06:24;103298.25;;;0.55;57.16
21706;BME280;11014;53.076;18.208;2022-12-18T07:08:53;103300.25;;;0.51;57.21
21706;BME280;11014;53.076;18.208;2022-12-18T07:11:22;103303.00;;;0.50;57.24
21706;BME280;11014;53.076;18.208;2022-12-18T07:13:52;103303.19;;;0.47;57.39
21706;BME280;11014;53.076;18.208;2022-12-18T07:16:26;103318.13;;;0.48;57.27
21706;BME280;11014;53.076;18.208;2022-12-18T07:19:04;103323.72;;;0.43;57.64
21706;BME280;11014;53.076;18.208;2022-12-18T07:21:32;103314.19;;;0.41;57.41
21706;BME280;11014;53.076;18.208;2022-12-18T07:24:00;103324.75;;;0.41;57.62
21706;BME280;11014;53.076;18.208;2022-12-18T07:26:29;103324.84;;;0.39;57.62
21706;BME280;11014;53.076;18.208;2022-12-18T07:28:58;103338.19;;;0.38;57.59
21706;BME280;11014;53.076;18.208;2022-12-18T07:31:27;103338.19;;;0.38;57.73
21706;BME280;11014;53.076;18.208;2022-12-18T07:33:56;103330.31;;;0.36;57.58
21706;BME280;11014;53.076;18.208;2022-12-18T07:36:24;103333.09;;;0.35;57.80
21706;BME280;11014;53.076;18.208;2022-12-18T07:42:27;103341.59;;;0.26;57.48
21706;BME280;11014;53.076;18.208;2022-12-18T07:46:17;103338.22;;;0.10;57.29
21706;BME280;11014;53.076;18.208;2022-12-18T07:49:19;103348.97;;;0.07;57.69
21706;BME280;11014;53.076;18.208;2022-12-18T07:51:52;103355.00;;;0.09;57.82
21706;BME280;11014;53.076;18.208;2022-12-18T07:55:18;103358.44;;;0.11;57.53
21706;BME280;11014;53.076;18.208;2022-12-18T08:02:10;103371.84;;;0.08;57.63
21706;BME280;11014;53.076;18.208;2022-12-18T08:04:46;103369.56;;;0.02;57.52
21706;BME280;11014;53.076;18.208;2022-12-18T08:07:38;103356.53;;;-0.02;57.56
21706;BME280;11014;53.076;18.208;2022-12-18T08:10:38;103354.81;;;-0.03;57.77
21706;BME280;11014;53.076;18.208;2022-12-18T08:13:48;103366.06;;;0.01;57.67
21706;BME280;11014;53.076;18.208;2022-12-18T08:16:35;103383.44;;;0.05;57.68
21706;BME280;11014;53.076;18.208;2022-12-18T08:19:20;103394.56;;;0.10;57.70
21706;BME280;11014;53.076;18.208;2022-12-18T08:22:02;103399.75;;;0.12;58.03
21706;BME280;11014;53.076;18.208;2022-12-18T08:24:45;103397.88;;;0.14;57.90
21706;BME280;11014;53.076;18.208;2022-12-18T08:27:22;103403.19;;;0.14;58.02
21706;BME280;11014;53.076;18.208;2022-12-18T08:30:06;103404.47;;;0.21;57.81
21706;BME280;11014;53.076;18.208;2022-12-18T08:36:05;103412.31;;;0.22;57.73
21706;BME280;11014;53.076;18.208;2022-12-18T08:38:54;103413.16;;;0.23;58.00
21706;BME280;11014;53.076;18.208;2022-12-18T08:42:07;103424.47;;;0.25;58.04
21706;BME280;11014;53.076;18.208;2022-12-18T08:46:25;103425.34;;;0.25;57.67
21706;BME280;11014;53.076;18.208;2022-12-18T08:54:41;103423.34;;;0.29;57.64
21706;BME280;11014;53.076;18.208;2022-12-18T08:57:48;103441.19;;;0.25;57.65
21706;BME280;11014;53.076;18.208;2022-12-18T09:00:44;103440.75;;;0.19;57.55
21706;BME280;11014;53.076;18.208;2022-12-18T09:03:47;103424.09;;;0.17;57.61
21706;BME280;11014;53.076;18.208;2022-12-18T09:07:33;103417.59;;;0.22;57.60
21706;BME280;11014;53.076;18.208;2022-12-18T09:10:27;103424.59;;;0.23;57.60
21706;BME280;11014;53.076;18.208;2022-12-18T09:18:25;103438.28;;;0.30;57.47
21706;BME280;11014;53.076;18.208;2022-12-18T09:21:56;103433.75;;;0.32;57.33
21706;BME280;11014;53.076;18.208;2022-12-18T09:24:48;103420.34;;;0.35;57.21
21706;BME280;11014;53.076;18.208;2022-12-18T09:27:28;103415.78;;;0.37;57.40
21706;BME280;11014;53.076;18.208;2022-12-18T09:30:02;103413.72;;;0.42;57.35
21706;BME280;11014;53.076;18.208;2022-12-18T09:32:43;103400.22;;;0.46;57.44
21706;BME280;11014;53.076;18.208;2022-12-18T09:35:15;103397.16;;;0.52;57.38
21706;BME280;11014;53.076;18.208;2022-12-18T09:37:47;103393.25;;;0.58;57.10
21706;BME280;11014;53.076;18.208;2022-12-18T09:40:20;103397.81;;;0.56;57.14
21706;BME280;11014;53.076;18.208;2022-12-18T09:42:55;103390.06;;;0.53;56.94
21706;BME280;11014;53.076;18.208;2022-12-18T09:45:27;103395.16;;;0.56;56.90
21706;BME280;11014;53.076;18.208;2022-12-18T09:47:56;103400.06;;;0.62;56.84
21706;BME280;11014;53.076;18.208;2022-12-18T09:50:55;103401.38;;;0.69;56.78
21706;BME280;11014;53.076;18.208;2022-12-18T09:53:31;103403.72;;;0.74;56.85
21706;BME280;11014;53.076;18.208;2022-12-18T09:56:04;103408.72;;;0.78;56.74
21706;BME280;11014;53.076;18.208;2022-12-18T09:58:40;103399.72;;;0.81;56.68
21706;BME280;11014;53.076;18.208;2022-12-18T10:01:21;103403.78;;;0.86;56.44
21706;BME280;11014;53.076;18.208;2022-12-18T10:04:00;103400.19;;;0.87;56.38
21706;BME280;11014;53.076;18.208;2022-12-18T10:07:03;103404.16;;;0.80;56.23
21706;BME280;11014;53.076;18.208;2022-12-18T10:10:07;103394.25;;;0.84;56.35
21706;BME280;11014;53.076;18.208;2022-12-18T10:15:32;103404.81;;;0.84;56.18
21706;BME280;11014;53.076;18.208;2022-12-18T10:20:52;103407.16;;;0.88;56.07
21706;BME280;11014;53.076;18.208;2022-12-18T10:23:44;103412.06;;;0.94;56.03
21706;BME280;11014;53.076;18.208;2022-12-18T10:26:19;103417.59;;;1.04;56.17
21706;BME280;11014;53.076;18.208;2022-12-18T10:28:49;103413.06;;;1.06;56.10
21706;BME280;11014;53.076;18.208;2022-12-18T10:31:30;103423.00;;;1.02;55.75
21706;BME280;11014;53.076;18.208;2022-12-18T10:33:59;103425.66;;;1.02;55.57
21706;BME280;11014;53.076;18.208;2022-12-18T10:36:30;103423.94;;;1.01;55.53
21706;BME280;11014;53.076;18.208;2022-12-18T10:39:20;103418.28;;;0.93;55.56
21706;BME280;11014;53.076;18.208;2022-12-18T10:41:50;103428.34;;;0.88;55.29
21706;BME280;11014;53.076;18.208;2022-12-18T10:44:22;103434.47;;;0.89;55.58
21706;BME280;11014;53.076;18.208;2022-12-18T10:46:54;103434.78;;;0.84;55.24
21706;BME280;11014;53.076;18.208;2022-12-18T10:49:33;103432.16;;;0.84;55.49
21706;BME280;11014;53.076;18.208;2022-12-18T10:54:46;103431.38;;;0.82;55.44
21706;BME280;11014;53.076;18.208;2022-12-18T10:59:56;103435.91;;;0.80;55.47
21706;BME280;11014;53.076;18.208;2022-12-18T11:02:35;103441.03;;;0.83;55.43
21706;BME280;11014;53.076;18.208;2022-12-18T11:05:29;103439.97;;;0.86;55.57
21706;BME280;11014;53.076;18.208;2022-12-18T11:12:48;103457.81;;;0.96;55.04
21706;BME280;11014;53.076;18.208;2022-12-18T11:15:30;103453.66;;;0.92;55.25
21706;BME280;11014;53.076;18.208;2022-12-18T11:17:58;103465.19;;;0.91;55.16
21706;BME280;11014;53.076;18.208;2022-12-18T11:20:35;103459.03;;;0.91;55.26
21706;BME280;11014;53.076;18.208;2022-12-18T11:23:12;103459.25;;;0.88;55.30
21706;BME280;11014;53.076;18.208;2022-12-18T11:25:54;103457.56;;;0.87;55.29
21706;BME280;11014;53.076;18.208;2022-12-18T11:28:50;103458.97;;;0.92;55.42
21706;BME280;11014;53.076;18.208;2022-12-18T11:31:26;103468.38;;;0.96;55.08
21706;BME280;11014;53.076;18.208;2022-12-18T11:34:41;103462.34;;;0.94;54.89
21706;BME280;11014;53.076;18.208;2022-12-18T11:37:01;103458.66;;;0.97;54.86
21706;BME280;11014;53.076;18.208;2022-12-18T11:39:41;103454.59;;;0.91;55.21
21706;BME280;11014;53.076;18.208;2022-12-18T11:42:20;103441.91;;;0.96;55.04
21706;BME280;11014;53.076;18.208;2022-12-18T11:47:49;103444.97;;;1.17;55.29
21706;BME280;11014;53.076;18.208;2022-12-18T11:50:26;103446.53;;;1.34;55.18
21706;BME280;11014;53.076;18.208;2022-12-18T11:53:25;103443.16;;;1.44;55.10
21706;BME280;11014;53.076;18.208;2022-12-18T11:56:17;103450.97;;;1.46;54.84
21706;BME280;11014;53.076;18.208;2022-12-18T12:02:23;103447.59;;;1.44;54.56
21706;BME280;11014;53.076;18.208;2022-12-18T12:07:42;103449.50;;;1.42;54.36
21706;BME280;11014;53.076;18.208;2022-12-18T12:16:23;103445.34;;;1.38;54.16
21706;BME280;11014;53.076;18.208;2022-12-18T12:30:25;103480.69;;;0.97;54.13
21706;BME280;11014;53.076;18.208;2022-12-18T12:33:18;103478.78;;;0.99;54.09
21706;BME280;11014;53.076;18.208;2022-12-18T12:35:59;103474.22;;;1.01;54.33
21706;BME280;11014;53.076;18.208;2022-12-18T12:38:40;103475.63;;;1.07;54.28
21706;BME280;11014;53.076;18.208;2022-12-18T12:41:22;103490.38;;;1.11;54.26
21706;BME280;11014;53.076;18.208;2022-12-18T12:44:24;103490.88;;;1.03;54.07
21706;BME280;11014;53.076;18.208;2022-12-18T12:46:58;103492.97;;;0.98;54.05
21706;BME280;11014;53.076;18.208;2022-12-18T12:49:31;103503.75;;;0.95;54.19
21706;BME280;11014;53.076;18.208;2022-12-18T12:52:35;103514.06;;;0.86;54.06
21706;BME280;11014;53.076;18.208;2022-12-18T12:55:25;103526.19;;;0.90;54.09
21706;BME280;11014;53.076;18.208;2022-12-18T12:58:07;103516.03;;;0.96;54.18
21706;BME280;11014;53.076;18.208;2022-12-18T13:01:00;103525.88;;;0.80;54.04
21706;BME280;11014;53.076;18.208;2022-12-18T13:03:55;103517.03;;;0.67;54.25
21706;BME280;11014;53.076;18.208;2022-12-18T13:09:29;103518.63;;;0.55;53.99
21706;BME280;11014;53.076;18.208;2022-12-18T13:12:04;103537.81;;;0.45;54.21
21706;BME280;11014;53.076;18.208;2022-12-18T13:14:52;103525.06;;;0.37;54.05
21706;BME280;11014;53.076;18.208;2022-12-18T13:22:45;103528.44;;;0.25;54.70
21706;BME280;11014;53.076;18.208;2022-12-18T13:25:38;103527.22;;;0.31;54.48
21706;BME280;11014;53.076;18.208;2022-12-18T13:28:54;103534.03;;;0.35;54.46
21706;BME280;11014;53.076;18.208;2022-12-18T13:30:57;103535.63;;;0.37;54.64
21706;BME280;11014;53.076;18.208;2022-12-18T13:38:44;103527.16;;;0.32;54.60
21706;BME280;11014;53.076;18.208;2022-12-18T13:41:26;103529.69;;;0.34;54.84
21706;BME280;11014;53.076;18.208;2022-12-18T13:47:00;103522.50;;;0.36;54.65
21706;BME280;11014;53.076;18.208;2022-12-18T13:49:38;103528.56;;;0.38;54.55
21706;BME280;11014;53.076;18.208;2022-12-18T13:52:25;103524.22;;;0.37;54.73
21706;BME280;11014;53.076;18.208;2022-12-18T13:54:56;103532.25;;;0.35;54.53
21706;BME280;11014;53.076;18.208;2022-12-18T13:57:38;103528.94;;;0.32;54.70
21706;BME280;11014;53.076;18.208;2022-12-18T14:00:28;103522.91;;;0.30;54.56
21706;BME280;11014;53.076;18.208;2022-12-18T14:02:58;103526.75;;;0.24;54.57
21706;BME280;11014;53.076;18.208;2022-12-18T14:05:31;103524.19;;;0.23;54.82
21706;BME280;11014;53.076;18.208;2022-12-18T14:08:04;103522.00;;;0.15;54.83
21706;BME280;11014;53.076;18.208;2022-12-18T14:10:40;103530.78;;;0.02;54.80
21706;BME280;11014;53.076;18.208;2022-12-18T14:13:35;103525.66;;;-0.02;54.92
21706;BME280;11014;53.076;18.208;2022-12-18T14:16:06;103525.66;;;-0.02;54.91
21706;BME280;11014;53.076;18.208;2022-12-18T14:18:55;103529.84;;;0.03;55.09
21706;BME280;11014;53.076;18.208;2022-12-18T14:21:33;103529.44;;;0.09;55.17
21706;BME280;11014;53.076;18.208;2022-12-18T14:26:44;103533.38;;;-0.13;55.42
21706;BME280;11014;53.076;18.208;2022-12-18T14:29:30;103541.41;;;-0.14;55.78
21706;BME280;11014;53.076;18.208;2022-12-18T14:32:16;103535.25;;;-0.15;56.16
21706;BME280;11014;53.076;18.208;2022-12-18T14:34:53;103538.47;;;-0.10;56.33
21706;BME280;11014;53.076;18.208;2022-12-18T14:37:24;103541.13;;;-0.10;56.22
21706;BME280;11014;53.076;18.208;2022-12-18T14:39:58;103538.66;;;-0.13;56.22
21706;BME280;11014;53.076;18.208;2022-12-18T14:42:31;103532.63;;;-0.15;56.12
21706;BME280;11014;53.076;18.208;2022-12-18T14:45:38;103536.13;;;-0.14;56.41
21706;BME280;11014;53.076;18.208;2022-12-18T14:48:20;103536.94;;;-0.14;56.11
21706;BME280;11014;53.076;18.208;2022-12-18T14:50:56;103548.66;;;-0.18;56.48
21706;BME280;11014;53.076;18.208;2022-12-18T14:53:37;103551.28;;;-0.18;56.25
21706;BME280;11014;53.076;18.208;2022-12-18T14:56:21;103543.25;;;-0.16;56.55
21706;BME280;11014;53.076;18.208;2022-12-18T14:58:58;103542.44;;;-0.17;56.43
21706;BME280;11014;53.076;18.208;2022-12-18T15:01:35;103534.69;;;-0.20;56.41
21706;BME280;11014;53.076;18.208;2022-12-18T15:04:28;103538.94;;;-0.17;56.31
21706;BME280;11014;53.076;18.208;2022-12-18T15:07:20;103544.28;;;-0.19;56.50
21706;BME280;11014;53.076;18.208;2022-12-18T15:10:09;103538.84;;;-0.16;56.47
21706;BME280;11014;53.076;18.208;2022-12-18T15:20:41;103565.19;;;-0.14;56.86
21706;BME280;11014;53.076;18.208;2022-12-18T15:26:20;103576.69;;;-0.15;56.85
21706;BME280;11014;53.076;18.208;2022-12-18T15:28:55;103579.44;;;-0.17;56.84
21706;BME280;11014;53.076;18.208;2022-12-18T15:31:30;103572.94;;;-0.11;56.70
21706;BME280;11014;53.076;18.208;2022-12-18T15:34:19;103567.53;;;-0.10;56.95
21706;BME280;11014;53.076;18.208;2022-12-18T15:36:50;103560.56;;;-0.11;56.72
21706;BME280;11014;53.076;18.208;2022-12-18T15:39:21;103552.63;;;-0.11;56.91